createdAt,value
2022-08-17T00:01:51.421Z,99266.75
2022-08-17T00:04:19.978Z,99263.66
2022-08-17T00:06:49.093Z,99257.81
2022-08-17T00:09:18.809Z,99264.47
2022-08-17T00:12:41.620Z,99261.34
2022-08-17T00:14:35.093Z,99270.53
2022-08-17T00:17:03.958Z,99263.63
2022-08-17T00:19:32.815Z,99274.47
2022-08-17T00:22:34.097Z,99269.25
2022-08-17T00:24:50.718Z,99277.56
2022-08-17T00:27:18.747Z,99269.69
2022-08-17T00:29:46.933Z,99266.31
2022-08-17T00:33:14.307Z,99268.41
2022-08-17T00:35:02.382Z,99254.25
2022-08-17T00:37:30.051Z,99258.81
2022-08-17T00:39:58.043Z,99268.78
2022-08-17T00:42:30.782Z,99262.72
2022-08-17T00:44:58.841Z,99267.09
2022-08-17T00:47:26.624Z,99253.72
2022-08-17T00:49:54.293Z,99256.84
2022-08-17T00:52:23.165Z,99251.19
2022-08-17T00:54:52.367Z,99252.22
2022-08-17T00:57:20.180Z,99249.94
2022-08-17T00:59:55.950Z,99253.47
2022-08-17T01:02:35.005Z,99247.22
2022-08-17T01:05:19.035Z,99244.31
2022-08-17T01:07:46.967Z,99243.25
2022-08-17T01:10:57.103Z,99236.00
2022-08-17T01:13:03.449Z,99243.69
2022-08-17T01:15:31.515Z,99234.56
2022-08-17T01:18:00.220Z,99238.53
2022-08-17T01:20:27.910Z,99241.91
2022-08-17T01:22:55.612Z,99241.69
2022-08-17T01:25:23.467Z,99236.22
2022-08-17T01:27:51.793Z,99240.13
2022-08-17T01:30:56.652Z,99245.72
2022-08-17T01:33:11.538Z,99246.13
2022-08-17T01:35:39.202Z,99242.75
2022-08-17T01:38:06.910Z,99240.22
2022-08-17T01:40:35.324Z,99252.69
2022-08-17T01:43:03.033Z,99249.72
2022-08-17T01:45:32.248Z,99247.63
2022-08-17T01:47:59.902Z,99249.91
2022-08-17T01:50:27.854Z,99249.06
2022-08-17T01:52:55.579Z,99246.75
2022-08-17T01:55:27.239Z,99249.47
2022-08-17T01:57:55.221Z,99251.53
2022-08-17T02:00:23.191Z,99251.53
2022-08-17T02:02:50.939Z,99249.03
2022-08-17T02:05:18.725Z,99247.34
2022-08-17T02:07:47.955Z,99249.22
2022-08-17T02:10:33.643Z,99249.22
2022-08-17T02:13:02.350Z,99247.75
2022-08-17T02:15:30.099Z,99251.69
2022-08-17T02:17:57.789Z,99246.63
2022-08-17T02:20:41.684Z,99243.72
2022-08-17T02:23:10.610Z,99244.50
2022-08-17T02:25:38.288Z,99247.16
2022-08-17T02:28:06.183Z,99242.34
2022-08-17T02:31:01.582Z,99243.78
2022-08-17T02:33:21.776Z,99238.13
2022-08-17T02:35:49.832Z,99238.53
2022-08-17T02:38:17.545Z,99237.22
2022-08-17T02:40:45.679Z,99244.72
2022-08-17T02:43:14.735Z,99236.34
2022-08-17T02:45:42.539Z,99244.00
2022-08-17T02:48:10.274Z,99246.25
2022-08-17T02:50:38.636Z,99242.94
2022-08-17T02:53:06.485Z,99236.91
2022-08-17T02:55:35.013Z,99240.63
2022-08-17T02:58:03.864Z,99236.28
2022-08-17T03:00:34.083Z,99234.56
2022-08-17T03:03:01.818Z,99231.88
2022-08-17T03:05:29.416Z,99230.59
2022-08-17T03:07:57.171Z,99227.47
2022-08-17T03:10:25.700Z,99231.19
2022-08-17T03:12:53.376Z,99227.66
2022-08-17T03:15:21.030Z,99226.59
2022-08-17T03:17:48.733Z,99221.22
2022-08-17T03:20:17.366Z,99229.31
2022-08-17T03:22:47.891Z,99221.22
2022-08-17T03:25:22.595Z,99229.75
2022-08-17T03:27:51.525Z,99224.16
2022-08-17T03:30:19.724Z,99219.41
2022-08-17T03:32:48.928Z,99222.53
2022-08-17T03:35:16.523Z,99220.28
2022-08-17T03:37:46.508Z,99218.66
2022-08-17T03:40:14.504Z,99224.31
2022-08-17T03:42:42.347Z,99230.16
2022-08-17T03:45:09.941Z,99231.38
2022-08-17T03:47:55.148Z,99225.94
2022-08-17T03:50:40.017Z,99227.50
2022-08-17T03:53:25.321Z,99225.13
2022-08-17T03:56:10.165Z,99229.84
2022-08-17T03:58:38.193Z,99218.59
2022-08-17T04:01:06.183Z,99223.34
2022-08-17T04:03:33.975Z,99222.50
2022-08-17T04:06:02.397Z,99221.50
2022-08-17T04:08:30.114Z,99218.13
2022-08-17T04:10:58.007Z,99217.50
2022-08-17T04:13:25.777Z,99222.66
2022-08-17T04:15:53.413Z,99221.66
2022-08-17T04:18:21.069Z,99226.88
2022-08-17T04:20:48.804Z,99226.88
2022-08-17T04:23:16.507Z,99234.97
2022-08-17T04:25:45.174Z,99238.53
2022-08-17T04:28:16.005Z,99234.81
2022-08-17T04:30:45.317Z,99236.47
2022-08-17T04:33:14.256Z,99243.72
2022-08-17T04:35:42.131Z,99244.38
2022-08-17T04:38:09.832Z,99238.97
2022-08-17T04:40:55.398Z,99247.91
2022-08-17T04:43:23.073Z,99247.31
2022-08-17T04:45:55.023Z,99242.59
2022-08-17T04:48:33.400Z,99249.44
2022-08-17T04:51:03.831Z,99256.13
2022-08-17T04:53:31.502Z,99254.72
2022-08-17T04:55:59.460Z,99256.84
2022-08-17T04:58:27.475Z,99257.91
2022-08-17T05:00:55.164Z,99262.72
2022-08-17T05:03:22.893Z,99264.22
2022-08-17T05:05:50.550Z,99269.63
2022-08-17T05:08:18.286Z,99266.91
2022-08-17T05:10:46.160Z,99271.09
2022-08-17T05:13:15.587Z,99267.13
2022-08-17T05:15:44.856Z,99265.09
2022-08-17T05:18:13.047Z,99273.41
2022-08-17T05:20:40.942Z,99271.72
2022-08-17T05:23:08.590Z,99275.25
2022-08-17T05:25:36.302Z,99271.72
2022-08-17T05:28:05.140Z,99271.31
2022-08-17T05:30:34.238Z,99268.44
2022-08-17T05:33:01.948Z,99264.31
2022-08-17T05:35:29.601Z,99262.06
2022-08-17T05:37:57.299Z,99266.28
2022-08-17T05:40:26.066Z,99252.63
2022-08-17T05:42:53.786Z,99253.50
2022-08-17T05:45:46.089Z,99256.25
2022-08-17T05:48:10.459Z,99268.81
2022-08-17T05:50:38.374Z,99263.84
2022-08-17T05:53:06.498Z,99265.53
2022-08-17T05:55:34.479Z,99262.91
2022-08-17T05:58:02.506Z,99260.66
2022-08-17T06:00:31.251Z,99253.41
2022-08-17T06:02:58.962Z,99258.47
2022-08-17T06:05:26.680Z,99252.94
2022-08-17T06:07:54.648Z,99249.41
2022-08-17T06:10:22.299Z,99250.25
2022-08-17T06:12:50.201Z,99243.81
2022-08-17T06:15:19.561Z,99243.41
2022-08-17T06:17:47.162Z,99241.31
2022-08-17T06:20:14.899Z,99245.13
2022-08-17T06:22:42.637Z,99239.47
2022-08-17T06:25:10.952Z,99242.16
2022-08-17T06:27:38.695Z,99234.66
2022-08-17T06:30:09.357Z,99242.38
2022-08-17T06:32:38.248Z,99235.47
2022-08-17T06:35:07.124Z,99241.06
2022-08-17T06:37:34.826Z,99236.84
2022-08-17T06:40:02.993Z,99236.81
2022-08-17T06:43:02.190Z,99238.41
2022-08-17T06:45:18.413Z,99240.88
2022-08-17T06:47:47.673Z,99231.41
2022-08-17T06:50:15.900Z,99232.16
2022-08-17T06:52:56.058Z,99235.22
2022-08-17T06:55:23.907Z,99233.13
2022-08-17T06:57:51.677Z,99224.47
2022-08-17T07:00:19.395Z,99236.16
2022-08-17T07:02:53.068Z,99235.63
2022-08-17T07:05:21.125Z,99229.69
2022-08-17T07:08:04.989Z,99235.50
2022-08-17T07:10:32.738Z,99230.56
2022-08-17T07:13:00.397Z,99234.06
2022-08-17T07:15:28.127Z,99238.44
2022-08-17T07:17:56.340Z,99229.34
2022-08-17T07:20:24.078Z,99223.63
2022-08-17T07:22:59.638Z,99236.72
2022-08-17T07:25:30.811Z,99229.69
2022-08-17T07:27:59.921Z,99237.25
2022-08-17T07:30:27.588Z,99226.41
2022-08-17T07:32:57.549Z,99235.88
2022-08-17T07:35:37.690Z,99233.38
2022-08-17T07:38:25.506Z,99241.31
2022-08-17T07:40:57.804Z,99239.72
2022-08-17T07:43:25.792Z,99229.31
2022-08-17T07:46:11.349Z,99234.03
2022-08-17T07:48:39.126Z,99240.06
2022-08-17T07:51:06.850Z,99235.88
2022-08-17T07:53:34.757Z,99232.94
2022-08-17T07:56:02.715Z,99236.22
2022-08-17T07:58:30.365Z,99237.00
2022-08-17T08:00:59.268Z,99229.84
2022-08-17T08:03:31.990Z,99240.22
2022-08-17T08:06:00.465Z,99237.22
2022-08-17T08:08:28.643Z,99240.13
2022-08-17T08:10:56.360Z,99239.25
2022-08-17T08:13:24.064Z,99245.00
2022-08-17T08:15:53.458Z,99244.41
2022-08-17T08:18:53.286Z,99237.03
2022-08-17T08:21:10.263Z,99243.59
2022-08-17T08:23:38.483Z,99243.81
2022-08-17T08:26:06.519Z,99239.16
2022-08-17T08:28:35.867Z,99247.41
2022-08-17T08:31:03.811Z,99240.25
2022-08-17T08:33:32.174Z,99239.44
2022-08-17T08:35:59.875Z,99235.19
2022-08-17T08:38:28.260Z,99234.28
2022-08-17T08:40:56.307Z,99233.03
2022-08-17T08:43:24.640Z,99230.50
2022-08-17T08:45:52.523Z,99229.06
2022-08-17T08:48:23.014Z,99231.44
2022-08-17T08:51:08.603Z,99225.81
2022-08-17T08:53:39.262Z,99236.84
2022-08-17T08:56:07.178Z,99231.91
2022-08-17T08:58:41.330Z,99240.75
2022-08-17T09:01:16.710Z,99238.09
2022-08-17T09:03:52.918Z,99239.47
2022-08-17T09:06:33.357Z,99242.19
2022-08-17T09:09:07.343Z,99246.34
2022-08-17T09:11:35.748Z,99238.63
2022-08-17T09:14:28.598Z,99238.16
2022-08-17T09:16:57.114Z,99232.34
2022-08-17T09:19:30.599Z,99240.34
2022-08-17T09:21:58.272Z,99244.72
2022-08-17T09:24:26.958Z,99239.44
2022-08-17T09:26:55.673Z,99227.22
2022-08-17T09:29:25.572Z,99236.13
2022-08-17T09:31:53.580Z,99234.84
2022-08-17T09:34:21.516Z,99234.72
2022-08-17T09:36:56.244Z,99242.34
2022-08-17T09:39:23.894Z,99243.56
2022-08-17T09:41:53.503Z,99242.06
2022-08-17T09:44:24.026Z,99250.16
2022-08-17T09:46:51.958Z,99254.09
2022-08-17T09:49:24.633Z,99250.53
2022-08-17T09:51:53.221Z,99258.25
2022-08-17T09:54:38.525Z,99254.47
2022-08-17T09:57:28.633Z,99253.44
2022-08-17T09:59:55.499Z,99257.06
2022-08-17T10:02:23.198Z,99260.25
2022-08-17T10:04:50.817Z,99260.09
2022-08-17T10:07:18.908Z,99252.31
2022-08-17T10:09:46.635Z,99249.16
2022-08-17T10:12:21.588Z,99254.31
2022-08-17T10:14:57.641Z,99253.66
2022-08-17T10:17:36.510Z,99255.72
2022-08-17T10:20:04.186Z,99258.25
2022-08-17T10:22:53.195Z,99250.19
2022-08-17T10:25:54.016Z,99264.16
2022-08-17T10:28:28.940Z,99266.03
2022-08-17T10:31:16.536Z,99255.94
2022-08-17T10:33:44.726Z,99253.19
2022-08-17T10:36:12.461Z,99262.50
2022-08-17T10:38:40.207Z,99262.72
2022-08-17T10:41:07.868Z,99272.25
2022-08-17T10:43:35.871Z,99274.06
2022-08-17T10:46:21.308Z,99261.97
2022-08-17T10:48:51.781Z,99264.97
2022-08-17T10:51:20.709Z,99271.25
2022-08-17T10:53:48.570Z,99268.50
2022-08-17T10:56:17.713Z,99274.81
2022-08-17T10:58:45.841Z,99281.28
2022-08-17T11:01:13.515Z,99283.84
2022-08-17T11:03:41.666Z,99291.25
2022-08-17T11:06:12.856Z,99281.16
2022-08-17T11:08:40.728Z,99276.09
2022-08-17T11:11:08.718Z,99272.66
2022-08-17T11:13:37.809Z,99278.25
2022-08-17T11:16:08.541Z,99283.50
2022-08-17T11:18:36.714Z,99285.53
2022-08-17T11:21:04.683Z,99287.56
2022-08-17T11:23:33.223Z,99291.03
2022-08-17T11:26:08.346Z,99293.38
2022-08-17T11:28:36.072Z,99296.59
2022-08-17T11:31:04.118Z,99286.97
2022-08-17T11:33:36.912Z,99302.53
2022-08-17T11:36:06.594Z,99307.19
2022-08-17T11:38:34.237Z,99300.38
2022-08-17T11:41:02.661Z,99303.25
2022-08-17T11:43:32.237Z,99300.06
2022-08-17T11:46:01.466Z,99302.91
2022-08-17T11:48:46.648Z,99299.56
2022-08-17T11:51:34.930Z,99295.56
2022-08-17T11:54:30.974Z,99289.53
2022-08-17T11:56:50.453Z,99297.47
2022-08-17T11:59:19.861Z,99303.13
2022-08-17T12:01:47.567Z,99303.72
2022-08-17T12:04:15.300Z,99308.00
2022-08-17T12:06:43.146Z,99301.72
2022-08-17T12:09:10.961Z,99302.47
2022-08-17T12:11:58.665Z,99298.50
2022-08-17T12:14:45.022Z,99305.66
2022-08-17T12:17:14.416Z,99294.78
2022-08-17T12:19:57.341Z,99297.66
2022-08-17T12:22:26.661Z,99288.50
2022-08-17T12:24:54.830Z,99292.28
2022-08-17T12:28:02.064Z,99281.88
2022-08-17T12:30:10.676Z,99277.19
2022-08-17T12:32:40.807Z,99276.94
2022-08-17T12:35:08.939Z,99274.09
2022-08-17T12:37:36.888Z,99271.34
2022-08-17T12:40:04.732Z,99276.66
2022-08-17T12:42:33.167Z,99277.19
2022-08-17T12:45:01.193Z,99288.13
2022-08-17T12:47:30.220Z,99282.22
2022-08-17T12:49:59.493Z,99288.63
2022-08-17T12:52:27.228Z,99276.69
2022-08-17T12:54:55.145Z,99268.09
2022-08-17T12:57:22.831Z,99259.44
2022-08-17T12:59:50.465Z,99256.94
2022-08-17T13:02:18.188Z,99252.81
2022-08-17T13:04:45.806Z,99247.59
2022-08-17T13:07:13.864Z,99244.94
2022-08-17T13:09:41.805Z,99240.84
2022-08-17T13:12:09.566Z,99239.84
2022-08-17T13:14:37.274Z,99242.06
2022-08-17T13:17:11.034Z,99242.59
2022-08-17T13:19:48.302Z,99243.72
2022-08-17T13:22:16.111Z,99247.00
2022-08-17T13:24:44.195Z,99251.41
2022-08-17T13:27:11.967Z,99244.19
2022-08-17T13:29:39.974Z,99237.47
2022-08-17T13:32:13.000Z,99235.13
2022-08-17T13:35:12.959Z,99240.78
2022-08-17T13:37:30.426Z,99238.84
2022-08-17T13:39:58.178Z,99237.53
2022-08-17T13:42:25.937Z,99239.00
2022-08-17T13:44:53.942Z,99238.56
2022-08-17T13:47:22.197Z,99234.34
2022-08-17T13:49:49.885Z,99240.50
2022-08-17T13:52:19.727Z,99238.81
2022-08-17T13:54:55.612Z,99237.78
2022-08-17T13:57:23.697Z,99253.78
2022-08-17T13:59:55.158Z,99252.53
2022-08-17T14:02:23.476Z,99254.59
2022-08-17T14:04:56.385Z,99256.84
2022-08-17T14:07:24.143Z,99265.97
2022-08-17T14:09:52.151Z,99273.16
2022-08-17T14:12:19.808Z,99264.91
2022-08-17T14:14:47.510Z,99264.41
2022-08-17T14:17:15.306Z,99269.16
2022-08-17T14:19:43.239Z,99263.38
2022-08-17T14:22:11.822Z,99256.31
2022-08-17T14:24:44.697Z,99254.22
2022-08-17T14:27:13.169Z,99263.31
2022-08-17T14:29:41.459Z,99260.56
2022-08-17T14:32:09.292Z,99249.31
2022-08-17T14:34:36.981Z,99247.50
2022-08-17T14:37:05.971Z,99251.78
2022-08-17T14:39:34.067Z,99255.09
2022-08-17T14:42:01.843Z,99252.72
2022-08-17T14:44:30.242Z,99248.63
2022-08-17T14:46:57.944Z,99250.50
2022-08-17T14:49:26.160Z,99248.44
2022-08-17T14:51:54.220Z,99247.53
2022-08-17T14:54:34.362Z,99243.00
2022-08-17T14:57:22.454Z,99242.31
2022-08-17T14:59:54.228Z,99245.94
2022-08-17T15:02:23.085Z,99241.38
2022-08-17T15:04:58.056Z,99244.50
2022-08-17T15:07:30.417Z,99238.44
2022-08-17T15:10:00.487Z,99241.63
2022-08-17T15:12:32.403Z,99231.84
2022-08-17T15:15:01.042Z,99233.91
2022-08-17T15:17:43.937Z,99240.59
2022-08-17T15:20:15.020Z,99238.94
2022-08-17T15:22:43.386Z,99238.81
2022-08-17T15:25:11.246Z,99233.31
2022-08-17T15:27:39.233Z,99239.00
2022-08-17T15:30:07.413Z,99244.22
2022-08-17T15:32:35.202Z,99237.47
2022-08-17T15:35:03.037Z,99238.56
2022-08-17T15:37:32.012Z,99229.75
2022-08-17T15:40:00.849Z,99229.28
2022-08-17T15:42:29.398Z,99218.50
2022-08-17T15:44:57.220Z,99237.59
2022-08-17T15:47:25.302Z,99232.28
2022-08-17T15:49:57.935Z,99235.59
2022-08-17T15:52:27.706Z,99235.72
2022-08-17T15:54:55.364Z,99232.28
2022-08-17T15:57:24.224Z,99222.06
2022-08-17T15:59:55.104Z,99228.59
2022-08-17T16:03:14.979Z,99222.59
2022-08-17T16:05:14.582Z,99218.50
2022-08-17T16:07:45.195Z,99219.66
2022-08-17T16:10:18.308Z,99223.72
2022-08-17T16:12:46.920Z,99226.59
2022-08-17T16:15:14.857Z,99217.84
2022-08-17T16:17:42.794Z,99222.53
2022-08-17T16:20:19.928Z,99226.78
2022-08-17T16:22:48.657Z,99222.66
2022-08-17T16:25:16.786Z,99232.31
2022-08-17T16:27:44.584Z,99232.81
2022-08-17T16:30:16.935Z,99228.47
2022-08-17T16:32:45.201Z,99237.75
2022-08-17T16:35:14.442Z,99238.13
2022-08-17T16:37:45.462Z,99236.13
2022-08-17T16:40:13.688Z,99234.34
2022-08-17T16:42:41.684Z,99242.22
2022-08-17T16:45:09.929Z,99243.00
2022-08-17T16:47:37.780Z,99247.84
2022-08-17T16:50:05.480Z,99249.41
2022-08-17T16:52:33.758Z,99243.38
2022-08-17T16:55:01.716Z,99240.94
2022-08-17T16:57:29.933Z,99254.97
2022-08-17T16:59:57.637Z,99263.28
2022-08-17T17:02:25.355Z,99262.75
2022-08-17T17:04:53.094Z,99263.88
2022-08-17T17:07:20.827Z,99268.59
2022-08-17T17:09:52.674Z,99273.91
2022-08-17T17:12:34.973Z,99272.28
2022-08-17T17:15:08.185Z,99262.72
2022-08-17T17:17:36.261Z,99275.94
2022-08-17T17:20:04.027Z,99286.19
2022-08-17T17:22:31.740Z,99282.75
2022-08-17T17:24:59.656Z,99291.91
2022-08-17T17:27:29.669Z,99290.41
2022-08-17T17:29:57.423Z,99288.63
2022-08-17T17:32:25.207Z,99298.28
2022-08-17T17:34:52.873Z,99287.72
2022-08-17T17:37:20.600Z,99302.75
2022-08-17T17:39:49.190Z,99310.72
2022-08-17T17:42:20.292Z,99311.94
2022-08-17T17:44:48.115Z,99305.97
2022-08-17T17:47:17.089Z,99312.88
2022-08-17T17:49:45.141Z,99312.97
2022-08-17T17:52:18.445Z,99318.78
2022-08-17T17:54:46.972Z,99329.19
2022-08-17T17:57:14.657Z,99316.69
2022-08-17T17:59:44.216Z,99330.47
2022-08-17T18:02:12.202Z,99343.38
2022-08-17T18:04:40.932Z,99342.63
2022-08-17T18:07:10.082Z,99350.56
2022-08-17T18:09:39.145Z,99361.53
2022-08-17T18:12:08.998Z,99353.47
2022-08-17T18:14:37.081Z,99352.72
2022-08-17T18:17:04.733Z,99350.06
2022-08-17T18:19:32.787Z,99358.31
2022-08-17T18:22:00.920Z,99350.22
2022-08-17T18:24:28.661Z,99353.03
2022-08-17T18:26:56.533Z,99363.78
2022-08-17T18:29:24.999Z,99358.41
2022-08-17T18:31:52.822Z,99370.44
2022-08-17T18:34:45.771Z,99375.97
2022-08-17T18:37:11.271Z,99377.34
2022-08-17T18:39:44.255Z,99370.28
2022-08-17T18:42:13.147Z,99370.31
2022-08-17T18:44:40.863Z,99370.38
2022-08-17T18:47:08.597Z,99364.16
2022-08-17T18:49:36.652Z,99370.53
2022-08-17T18:52:04.369Z,99372.47
2022-08-17T18:54:32.536Z,99372.50
2022-08-17T18:57:00.321Z,99379.91
2022-08-17T18:59:28.464Z,99385.41
2022-08-17T19:01:58.483Z,99379.19
2022-08-17T19:04:26.994Z,99384.88
2022-08-17T19:07:00.483Z,99377.59
2022-08-17T19:09:28.508Z,99388.31
2022-08-17T19:11:56.187Z,99389.16
2022-08-17T19:14:25.923Z,99397.59
2022-08-17T19:16:53.648Z,99403.44
2022-08-17T19:19:21.654Z,99411.44
2022-08-17T19:21:49.413Z,99417.31
2022-08-17T19:24:19.607Z,99420.69
2022-08-17T19:26:53.608Z,99416.75
2022-08-17T19:29:23.865Z,99414.88
2022-08-17T19:31:51.533Z,99419.31
2022-08-17T19:34:30.183Z,99420.16
2022-08-17T19:37:01.986Z,99428.97
2022-08-17T19:39:38.628Z,99419.78
2022-08-17T19:42:06.555Z,99423.34
2022-08-17T19:44:34.511Z,99425.84
2022-08-17T19:47:02.733Z,99425.44
2022-08-17T19:49:40.687Z,99433.19
2022-08-17T19:52:10.258Z,99415.66
2022-08-17T19:54:38.189Z,99428.19
2022-08-17T19:57:05.976Z,99428.84
2022-08-17T19:59:35.956Z,99428.66
2022-08-17T20:02:04.493Z,99424.47
2022-08-17T20:04:32.615Z,99422.41
2022-08-17T20:07:00.555Z,99425.75
2022-08-17T20:09:29.633Z,99428.88
2022-08-17T20:12:01.462Z,99427.66
2022-08-17T20:14:29.096Z,99433.50
2022-08-17T20:17:01.878Z,99436.84
2022-08-17T20:19:30.667Z,99435.59
2022-08-17T20:21:58.415Z,99438.09
2022-08-17T20:24:26.088Z,99440.19
2022-08-17T20:26:58.144Z,99439.09
2022-08-17T20:29:31.896Z,99445.81
2022-08-17T20:32:05.749Z,99446.22
2022-08-17T20:34:37.408Z,99441.22
2022-08-17T20:37:06.134Z,99447.03
2022-08-17T20:39:38.116Z,99454.56
2022-08-17T20:42:05.907Z,99453.09
2022-08-17T20:44:33.756Z,99455.38
2022-08-17T20:47:01.622Z,99452.25
2022-08-17T20:49:29.407Z,99456.44
2022-08-17T20:52:01.698Z,99465.81
2022-08-17T20:54:30.517Z,99457.25
2022-08-17T20:56:58.420Z,99454.13
2022-08-17T20:59:27.705Z,99456.22
2022-08-17T21:01:55.453Z,99454.94
2022-08-17T21:04:23.098Z,99453.47
2022-08-17T21:06:50.724Z,99457.66
2022-08-17T21:09:18.784Z,99450.16
2022-08-17T21:12:03.262Z,99457.00
2022-08-17T21:14:32.891Z,99450.34
2022-08-17T21:17:01.466Z,99456.38
2022-08-17T21:19:31.207Z,99450.31
2022-08-17T21:21:59.213Z,99449.69
2022-08-17T21:24:26.955Z,99453.63
2022-08-17T21:26:55.605Z,99447.75
2022-08-17T21:29:31.376Z,99452.56
2022-08-17T21:32:00.616Z,99455.44
2022-08-17T21:34:28.447Z,99469.22
2022-08-17T21:36:57.062Z,99471.50
2022-08-17T21:39:30.651Z,99461.06
2022-08-17T21:42:00.976Z,99466.88
2022-08-17T21:44:31.180Z,99465.34
2022-08-17T21:46:59.073Z,99470.25
2022-08-17T21:49:26.777Z,99466.03
2022-08-17T21:51:54.568Z,99482.13
2022-08-17T21:54:22.557Z,99478.09
2022-08-17T21:56:50.244Z,99479.50
2022-08-17T21:59:18.330Z,99492.13
2022-08-17T22:01:46.018Z,99486.69
2022-08-17T22:04:18.333Z,99497.25
2022-08-17T22:06:56.678Z,99499.72
2022-08-17T22:09:25.859Z,99496.28
2022-08-17T22:11:53.490Z,99493.53
2022-08-17T22:14:21.786Z,99492.25
2022-08-17T22:16:50.751Z,99499.91
2022-08-17T22:19:20.493Z,99497.38
2022-08-17T22:21:48.179Z,99493.00
2022-08-17T22:24:14.860Z,99494.69
2022-08-17T22:26:42.788Z,99503.00
2022-08-17T22:29:10.546Z,99503.84
2022-08-17T22:31:38.246Z,99508.03
2022-08-17T22:34:06.839Z,99505.94
2022-08-17T22:36:34.683Z,99508.41
2022-08-17T22:39:02.687Z,99503.78
2022-08-17T22:41:32.170Z,99496.41
2022-08-17T22:44:02.522Z,99492.41
2022-08-17T22:46:30.386Z,99506.56
2022-08-17T22:48:59.509Z,99509.28
2022-08-17T22:51:27.434Z,99518.22
2022-08-17T22:54:12.504Z,99522.41
2022-08-17T22:56:57.724Z,99524.47
2022-08-17T22:59:27.382Z,99526.53
2022-08-17T23:01:55.053Z,99527.47
2022-08-17T23:04:22.802Z,99527.78
2022-08-17T23:06:50.423Z,99519.78
2022-08-17T23:09:18.431Z,99521.38
2022-08-17T23:11:50.051Z,99518.63
2022-08-17T23:14:19.308Z,99512.13
2022-08-17T23:16:47.017Z,99515.34
2022-08-17T23:19:15.516Z,99517.59
2022-08-17T23:21:44.892Z,99508.50
2022-08-17T23:24:13.754Z,99504.75
2022-08-17T23:26:41.438Z,99498.16
2022-08-17T23:29:09.560Z,99496.09
2022-08-17T23:31:37.369Z,99490.69
2022-08-17T23:34:05.021Z,99491.72
2022-08-17T23:36:35.384Z,99495.63
2022-08-17T23:39:03.309Z,99494.13
2022-08-17T23:41:31.763Z,99495.63
2022-08-17T23:43:59.396Z,99502.53
2022-08-17T23:46:27.060Z,99499.25
2022-08-17T23:48:55.016Z,99501.56
2022-08-17T23:51:22.760Z,99509.09
2022-08-17T23:53:50.426Z,99509.75
2022-08-17T23:56:24.088Z,99511.63
2022-08-17T23:58:51.766Z,99507.06
